sensor_id;sensor_type;location;lat;lon;timestamp;pressure;altitude;pressure_sealevel;temperature;humidity
39141;BME280;24875;48.436;10.298;2023-08-17T00:00:14;96350.56;;;22.21;100.00
39141;BME280;24875;48.436;10.298;2023-08-17T00:02:41;96358.06;;;22.03;100.00
39141;BME280;24875;48.436;10.298;2023-08-17T00:05:08;96352.84;;;21.97;100.00
39141;BME280;24875;48.436;10.298;2023-08-17T00:07:35;96353.69;;;21.97;100.00
39141;BME280;24875;48.436;10.298;2023-08-17T00:10:02;96360.81;;;21.92;100.00
39141;BME280;24875;48.436;10.298;2023-08-17T00:12:29;96360.09;;;21.96;100.00
39141;BME280;24875;48.436;10.298;2023-08-17T00:14:57;96361.66;;;22.08;100.00
39141;BME280;24875;48.436;10.298;2023-08-17T00:17:23;96368.16;;;21.96;100.00
39141;BME280;24875;48.436;10.298;2023-08-17T00:19:50;96365.50;;;21.52;100.00
39141;BME280;24875;48.436;10.298;2023-08-17T00:22:16;96362.22;;;21.50;100.00
39141;BME280;24875;48.436;10.298;2023-08-17T00:24:43;96371.63;;;21.36;100.00
39141;BME280;24875;48.436;10.298;2023-08-17T00:27:10;96368.88;;;21.47;100.00
39141;BME280;24875;48.436;10.298;2023-08-17T00:29:37;96365.69;;;21.62;100.00
39141;BME280;24875;48.436;10.298;2023-08-17T00:32:05;96363.03;;;21.95;100.00
39141;BME280;24875;48.436;10.298;2023-08-17T00:34:32;96358.38;;;21.90;100.00
39141;BME280;24875;48.436;10.298;2023-08-17T00:36:59;96362.59;;;21.86;100.00
39141;BME280;24875;48.436;10.298;2023-08-17T00:39:25;96362.69;;;21.75;100.00
39141;BME280;24875;48.436;10.298;2023-08-17T00:41:52;96361.41;;;21.49;100.00
39141;BME280;24875;48.436;10.298;2023-08-17T00:44:19;96362.09;;;21.56;100.00
39141;BME280;24875;48.436;10.298;2023-08-17T00:46:45;96360.69;;;21.26;100.00
39141;BME280;24875;48.436;10.298;2023-08-17T00:49:13;96357.28;;;21.31;100.00
39141;BME280;24875;48.436;10.298;2023-08-17T00:51:40;96351.78;;;21.37;100.00
39141;BME280;24875;48.436;10.298;2023-08-17T00:54:07;96362.41;;;21.60;100.00
39141;BME280;24875;48.436;10.298;2023-08-17T00:56:33;96357.72;;;21.67;100.00
39141;BME280;24875;48.436;10.298;2023-08-17T00:59:00;96349.69;;;21.67;100.00
39141;BME280;24875;48.436;10.298;2023-08-17T01:01:27;96350.28;;;21.57;100.00
39141;BME280;24875;48.436;10.298;2023-08-17T01:03:53;96343.88;;;21.31;100.00
39141;BME280;24875;48.436;10.298;2023-08-17T01:06:21;96344.31;;;21.39;100.00
39141;BME280;24875;48.436;10.298;2023-08-17T01:08:48;96336.09;;;21.29;100.00
39141;BME280;24875;48.436;10.298;2023-08-17T01:11:22;96335.84;;;21.58;100.00
39141;BME280;24875;48.436;10.298;2023-08-17T01:13:55;96332.34;;;21.58;100.00
39141;BME280;24875;48.436;10.298;2023-08-17T01:16:27;96333.34;;;21.41;100.00
39141;BME280;24875;48.436;10.298;2023-08-17T01:18:57;96333.41;;;21.29;100.00
39141;BME280;24875;48.436;10.298;2023-08-17T01:21:38;96323.50;;;21.30;100.00
39141;BME280;24875;48.436;10.298;2023-08-17T01:24:08;96326.25;;;21.18;100.00
39141;BME280;24875;48.436;10.298;2023-08-17T01:26:37;96331.47;;;21.25;100.00
39141;BME280;24875;48.436;10.298;2023-08-17T01:29:03;96332.44;;;21.35;100.00
39141;BME280;24875;48.436;10.298;2023-08-17T01:31:32;96329.50;;;21.20;100.00
39141;BME280;24875;48.436;10.298;2023-08-17T01:34:04;96325.41;;;21.18;100.00
39141;BME280;24875;48.436;10.298;2023-08-17T01:36:37;96317.91;;;21.03;100.00
39141;BME280;24875;48.436;10.298;2023-08-17T01:39:04;96315.09;;;21.10;100.00
39141;BME280;24875;48.436;10.298;2023-08-17T01:41:33;96311.97;;;21.29;100.00
39141;BME280;24875;48.436;10.298;2023-08-17T01:44:01;96315.03;;;21.21;100.00
39141;BME280;24875;48.436;10.298;2023-08-17T01:46:30;96315.03;;;21.21;100.00
39141;BME280;24875;48.436;10.298;2023-08-17T01:48:57;96311.66;;;21.26;100.00
39141;BME280;24875;48.436;10.298;2023-08-17T01:51:24;96309.03;;;21.31;100.00
39141;BME280;24875;48.436;10.298;2023-08-17T01:53:51;96298.47;;;21.08;100.00
39141;BME280;24875;48.436;10.298;2023-08-17T01:56:17;96298.91;;;21.33;100.00
39141;BME280;24875;48.436;10.298;2023-08-17T01:58:45;96307.88;;;21.54;100.00
39141;BME280;24875;48.436;10.298;2023-08-17T02:01:12;96297.19;;;21.43;100.00
39141;BME280;24875;48.436;10.298;2023-08-17T02:03:38;96305.34;;;21.48;100.00
39141;BME280;24875;48.436;10.298;2023-08-17T02:06:05;96299.06;;;21.42;100.00
39141;BME280;24875;48.436;10.298;2023-08-17T02:08:33;96294.53;;;21.43;100.00
39141;BME280;24875;48.436;10.298;2023-08-17T02:10:59;96289.38;;;21.25;100.00
39141;BME280;24875;48.436;10.298;2023-08-17T02:13:26;96282.69;;;21.11;100.00
39141;BME280;24875;48.436;10.298;2023-08-17T02:15:54;96287.94;;;21.06;100.00
39141;BME280;24875;48.436;10.298;2023-08-17T02:18:20;96287.19;;;20.94;100.00
39141;BME280;24875;48.436;10.298;2023-08-17T02:20:47;96283.81;;;20.60;100.00
39141;BME280;24875;48.436;10.298;2023-08-17T02:23:13;96281.75;;;20.39;100.00
39141;BME280;24875;48.436;10.298;2023-08-17T02:25:40;96286.50;;;20.60;100.00
39141;BME280;24875;48.436;10.298;2023-08-17T02:28:07;96285.19;;;20.74;100.00
39141;BME280;24875;48.436;10.298;2023-08-17T02:30:33;96285.84;;;20.81;100.00
39141;BME280;24875;48.436;10.298;2023-08-17T02:33:01;96287.00;;;20.84;100.00
39141;BME280;24875;48.436;10.298;2023-08-17T02:35:28;96275.84;;;20.87;100.00
39141;BME280;24875;48.436;10.298;2023-08-17T02:37:54;96279.84;;;20.74;100.00
39141;BME280;24875;48.436;10.298;2023-08-17T02:40:21;96278.69;;;20.58;100.00
39141;BME280;24875;48.436;10.298;2023-08-17T02:42:47;96275.63;;;20.66;100.00
39141;BME280;24875;48.436;10.298;2023-08-17T02:45:14;96274.47;;;20.74;100.00
39141;BME280;24875;48.436;10.298;2023-08-17T02:47:40;96276.53;;;20.72;100.00
39141;BME280;24875;48.436;10.298;2023-08-17T02:52:35;96271.63;;;20.91;100.00
39141;BME280;24875;48.436;10.298;2023-08-17T02:55:02;96271.47;;;20.59;100.00
39141;BME280;24875;48.436;10.298;2023-08-17T02:57:29;96266.88;;;20.82;100.00
39141;BME280;24875;48.436;10.298;2023-08-17T02:59:55;96279.22;;;20.72;100.00
39141;BME280;24875;48.436;10.298;2023-08-17T03:02:22;96271.56;;;20.64;100.00
39141;BME280;24875;48.436;10.298;2023-08-17T03:04:49;96269.78;;;20.69;100.00
39141;BME280;24875;48.436;10.298;2023-08-17T03:07:15;96260.34;;;20.39;100.00
39141;BME280;24875;48.436;10.298;2023-08-17T03:09:43;96262.84;;;20.57;100.00
39141;BME280;24875;48.436;10.298;2023-08-17T03:12:09;96267.25;;;20.63;100.00
39141;BME280;24875;48.436;10.298;2023-08-17T03:14:36;96268.31;;;20.62;100.00
39141;BME280;24875;48.436;10.298;2023-08-17T03:17:03;96257.97;;;20.54;100.00
39141;BME280;24875;48.436;10.298;2023-08-17T03:19:29;96266.13;;;20.59;100.00
39141;BME280;24875;48.436;10.298;2023-08-17T03:21:56;96273.91;;;20.60;100.00
39141;BME280;24875;48.436;10.298;2023-08-17T03:24:22;96273.91;;;20.60;100.00
39141;BME280;24875;48.436;10.298;2023-08-17T03:26:50;96276.09;;;20.75;100.00
39141;BME280;24875;48.436;10.298;2023-08-17T03:29:17;96284.63;;;20.60;100.00
39141;BME280;24875;48.436;10.298;2023-08-17T03:31:43;96282.31;;;20.52;100.00
39141;BME280;24875;48.436;10.298;2023-08-17T03:34:10;96286.53;;;20.48;100.00
39141;BME280;24875;48.436;10.298;2023-08-17T03:36:36;96288.03;;;20.44;100.00
39141;BME280;24875;48.436;10.298;2023-08-17T03:39:03;96280.91;;;20.50;100.00
39141;BME280;24875;48.436;10.298;2023-08-17T03:41:30;96284.22;;;20.40;100.00
39141;BME280;24875;48.436;10.298;2023-08-17T03:43:58;96282.88;;;20.54;100.00
39141;BME280;24875;48.436;10.298;2023-08-17T03:46:24;96284.53;;;20.44;100.00
39141;BME280;24875;48.436;10.298;2023-08-17T03:48:51;96289.34;;;20.42;100.00
39141;BME280;24875;48.436;10.298;2023-08-17T03:51:17;96295.38;;;20.37;100.00
39141;BME280;24875;48.436;10.298;2023-08-17T03:53:44;96300.97;;;20.36;100.00
39141;BME280;24875;48.436;10.298;2023-08-17T03:56:10;96305.03;;;20.50;100.00
39141;BME280;24875;48.436;10.298;2023-08-17T03:58:37;96306.53;;;20.46;100.00
39141;BME280;24875;48.436;10.298;2023-08-17T04:01:05;96313.41;;;20.53;100.00
39141;BME280;24875;48.436;10.298;2023-08-17T04:03:32;96324.44;;;20.45;100.00
39141;BME280;24875;48.436;10.298;2023-08-17T04:06:04;96324.75;;;20.72;100.00
39141;BME280;24875;48.436;10.298;2023-08-17T04:08:30;96331.56;;;20.40;100.00
39141;BME280;24875;48.436;10.298;2023-08-17T04:10:57;96335.66;;;20.42;100.00
39141;BME280;24875;48.436;10.298;2023-08-17T04:13:23;96326.22;;;20.40;100.00
39141;BME280;24875;48.436;10.298;2023-08-17T04:15:52;96333.81;;;20.31;100.00
39141;BME280;24875;48.436;10.298;2023-08-17T04:18:20;96327.97;;;20.46;100.00
39141;BME280;24875;48.436;10.298;2023-08-17T04:20:46;96329.38;;;20.37;100.00
39141;BME280;24875;48.436;10.298;2023-08-17T04:23:13;96332.75;;;20.32;100.00
39141;BME280;24875;48.436;10.298;2023-08-17T04:25:40;96335.28;;;20.39;100.00
39141;BME280;24875;48.436;10.298;2023-08-17T04:28:06;96328.91;;;20.40;100.00
39141;BME280;24875;48.436;10.298;2023-08-17T04:30:33;96330.63;;;20.46;100.00
39141;BME280;24875;48.436;10.298;2023-08-17T04:32:59;96340.09;;;20.37;100.00
39141;BME280;24875;48.436;10.298;2023-08-17T04:35:27;96336.00;;;20.46;100.00
39141;BME280;24875;48.436;10.298;2023-08-17T04:37:54;96334.84;;;20.42;100.00
39141;BME280;24875;48.436;10.298;2023-08-17T04:40:20;96336.25;;;20.33;100.00
39141;BME280;24875;48.436;10.298;2023-08-17T04:42:47;96337.19;;;20.27;100.00
39141;BME280;24875;48.436;10.298;2023-08-17T04:45:13;96334.50;;;20.16;100.00
39141;BME280;24875;48.436;10.298;2023-08-17T04:47:40;96335.91;;;20.07;100.00
39141;BME280;24875;48.436;10.298;2023-08-17T04:50:07;96331.03;;;20.26;100.00
39141;BME280;24875;48.436;10.298;2023-08-17T04:52:35;96334.00;;;20.41;100.00
39141;BME280;24875;48.436;10.298;2023-08-17T04:55:02;96337.53;;;20.42;100.00
39141;BME280;24875;48.436;10.298;2023-08-17T04:57:29;96340.88;;;20.37;100.00
39141;BME280;24875;48.436;10.298;2023-08-17T04:59:55;96339.25;;;20.36;100.00
39141;BME280;24875;48.436;10.298;2023-08-17T05:02:22;96344.84;;;20.35;100.00
39141;BME280;24875;48.436;10.298;2023-08-17T05:04:48;96341.34;;;20.46;100.00
39141;BME280;24875;48.436;10.298;2023-08-17T05:07:15;96343.53;;;20.49;100.00
39141;BME280;24875;48.436;10.298;2023-08-17T05:09:43;96346.09;;;20.55;100.00
39141;BME280;24875;48.436;10.298;2023-08-17T05:12:09;96349.94;;;20.48;100.00
39141;BME280;24875;48.436;10.298;2023-08-17T05:14:36;96347.84;;;20.50;100.00
39141;BME280;24875;48.436;10.298;2023-08-17T05:17:02;96344.44;;;20.66;100.00
39141;BME280;24875;48.436;10.298;2023-08-17T05:19:29;96347.72;;;20.68;100.00
39141;BME280;24875;48.436;10.298;2023-08-17T05:21:55;96348.06;;;20.83;100.00
39141;BME280;24875;48.436;10.298;2023-08-17T05:24:22;96345.34;;;20.94;100.00
39141;BME280;24875;48.436;10.298;2023-08-17T05:26:50;96340.56;;;21.24;100.00
39141;BME280;24875;48.436;10.298;2023-08-17T05:29:16;96342.66;;;21.22;100.00
39141;BME280;24875;48.436;10.298;2023-08-17T05:31:43;96335.84;;;21.31;100.00
39141;BME280;24875;48.436;10.298;2023-08-17T05:34:10;96336.88;;;21.13;100.00
39141;BME280;24875;48.436;10.298;2023-08-17T05:36:36;96347.25;;;21.38;100.00
39141;BME280;24875;48.436;10.298;2023-08-17T05:39:03;96344.38;;;21.55;100.00
39141;BME280;24875;48.436;10.298;2023-08-17T05:41:29;96339.44;;;21.64;100.00
39141;BME280;24875;48.436;10.298;2023-08-17T05:43:57;96343.34;;;21.89;100.00
39141;BME280;24875;48.436;10.298;2023-08-17T05:46:24;96349.69;;;21.83;100.00
39141;BME280;24875;48.436;10.298;2023-08-17T05:48:50;96343.41;;;21.78;100.00
39141;BME280;24875;48.436;10.298;2023-08-17T05:51:17;96346.75;;;21.85;100.00
39141;BME280;24875;48.436;10.298;2023-08-17T05:53:43;96344.25;;;21.95;100.00
39141;BME280;24875;48.436;10.298;2023-08-17T05:56:10;96350.25;;;22.02;100.00
39141;BME280;24875;48.436;10.298;2023-08-17T05:58:37;96342.94;;;22.13;100.00
39141;BME280;24875;48.436;10.298;2023-08-17T06:01:05;96344.44;;;22.42;100.00
39141;BME280;24875;48.436;10.298;2023-08-17T06:03:33;96354.47;;;22.14;100.00
39141;BME280;24875;48.436;10.298;2023-08-17T06:05:59;96344.16;;;22.22;100.00
39141;BME280;24875;48.436;10.298;2023-08-17T06:08:26;96352.59;;;22.31;100.00
39141;BME280;24875;48.436;10.298;2023-08-17T06:10:53;96346.16;;;22.48;100.00
39141;BME280;24875;48.436;10.298;2023-08-17T06:13:19;96355.66;;;22.56;100.00
39141;BME280;24875;48.436;10.298;2023-08-17T06:15:46;96346.72;;;22.71;100.00
39141;BME280;24875;48.436;10.298;2023-08-17T06:18:14;96346.44;;;22.89;100.00
39141;BME280;24875;48.436;10.298;2023-08-17T06:20:40;96351.31;;;22.71;100.00
39141;BME280;24875;48.436;10.298;2023-08-17T06:23:07;96349.16;;;22.73;100.00
39141;BME280;24875;48.436;10.298;2023-08-17T06:25:33;96352.44;;;22.75;100.00
39141;BME280;24875;48.436;10.298;2023-08-17T06:28:00;96350.41;;;22.87;100.00
39141;BME280;24875;48.436;10.298;2023-08-17T06:30:27;96344.56;;;22.90;100.00
39141;BME280;24875;48.436;10.298;2023-08-17T06:32:54;96340.44;;;23.04;100.00
39141;BME280;24875;48.436;10.298;2023-08-17T06:35:22;96349.88;;;23.06;100.00
39141;BME280;24875;48.436;10.298;2023-08-17T06:37:48;96348.63;;;23.14;100.00
39141;BME280;24875;48.436;10.298;2023-08-17T06:40:16;96349.06;;;23.06;100.00
39141;BME280;24875;48.436;10.298;2023-08-17T06:42:43;96345.47;;;23.17;100.00
39141;BME280;24875;48.436;10.298;2023-08-17T06:45:09;96340.22;;;23.31;100.00
39141;BME280;24875;48.436;10.298;2023-08-17T06:47:36;96343.81;;;23.16;100.00
39141;BME280;24875;48.436;10.298;2023-08-17T06:50:03;96342.75;;;23.43;100.00
39141;BME280;24875;48.436;10.298;2023-08-17T06:52:31;96346.97;;;23.60;100.00
39141;BME280;24875;48.436;10.298;2023-08-17T06:54:59;96354.34;;;23.43;100.00
39141;BME280;24875;48.436;10.298;2023-08-17T06:57:26;96352.84;;;23.57;100.00
39141;BME280;24875;48.436;10.298;2023-08-17T06:59:54;96347.69;;;23.77;100.00
39141;BME280;24875;48.436;10.298;2023-08-17T07:02:20;96351.84;;;23.90;100.00
39141;BME280;24875;48.436;10.298;2023-08-17T07:04:47;96362.34;;;23.91;100.00
39141;BME280;24875;48.436;10.298;2023-08-17T07:07:13;96362.72;;;23.99;100.00
39141;BME280;24875;48.436;10.298;2023-08-17T07:09:41;96358.72;;;24.07;100.00
39141;BME280;24875;48.436;10.298;2023-08-17T07:12:08;96354.16;;;24.07;100.00
39141;BME280;24875;48.436;10.298;2023-08-17T07:14:34;96361.88;;;23.99;100.00
39141;BME280;24875;48.436;10.298;2023-08-17T07:17:02;96351.78;;;24.16;100.00
39141;BME280;24875;48.436;10.298;2023-08-17T07:19:29;96353.78;;;24.30;100.00
39141;BME280;24875;48.436;10.298;2023-08-17T07:21:56;96359.09;;;24.56;100.00
39141;BME280;24875;48.436;10.298;2023-08-17T07:24:22;96353.44;;;24.53;100.00
39141;BME280;24875;48.436;10.298;2023-08-17T07:26:50;96351.94;;;24.82;100.00
39141;BME280;24875;48.436;10.298;2023-08-17T07:29:17;96354.38;;;24.83;100.00
39141;BME280;24875;48.436;10.298;2023-08-17T07:31:43;96357.66;;;24.90;100.00
39141;BME280;24875;48.436;10.298;2023-08-17T07:34:10;96348.25;;;24.93;100.00
39141;BME280;24875;48.436;10.298;2023-08-17T07:36:36;96353.22;;;25.16;100.00
39141;BME280;24875;48.436;10.298;2023-08-17T07:39:04;96355.97;;;25.40;100.00
39141;BME280;24875;48.436;10.298;2023-08-17T07:41:31;96356.81;;;25.41;100.00
39141;BME280;24875;48.436;10.298;2023-08-17T07:43:59;96363.66;;;25.78;100.00
39141;BME280;24875;48.436;10.298;2023-08-17T07:46:25;96355.50;;;25.63;100.00
39141;BME280;24875;48.436;10.298;2023-08-17T07:48:52;96359.00;;;25.69;100.00
39141;BME280;24875;48.436;10.298;2023-08-17T07:51:18;96360.94;;;25.73;100.00
39141;BME280;24875;48.436;10.298;2023-08-17T07:53:45;96364.47;;;25.79;100.00
39141;BME280;24875;48.436;10.298;2023-08-17T07:56:12;96355.50;;;25.63;100.00
39141;BME280;24875;48.436;10.298;2023-08-17T07:58:38;96358.72;;;25.55;100.00
39141;BME280;24875;48.436;10.298;2023-08-17T08:01:06;96359.59;;;26.00;100.00
39141;BME280;24875;48.436;10.298;2023-08-17T08:03:33;96358.25;;;25.98;100.00
39141;BME280;24875;48.436;10.298;2023-08-17T08:05:59;96359.88;;;25.89;100.00
39141;BME280;24875;48.436;10.298;2023-08-17T08:08:26;96356.91;;;26.10;100.00
39141;BME280;24875;48.436;10.298;2023-08-17T08:10:53;96354.22;;;26.00;100.00
39141;BME280;24875;48.436;10.298;2023-08-17T08:13:20;96348.81;;;25.90;100.00
39141;BME280;24875;48.436;10.298;2023-08-17T08:15:46;96351.25;;;26.02;100.00
39141;BME280;24875;48.436;10.298;2023-08-17T08:18:14;96349.63;;;26.36;100.00
39141;BME280;24875;48.436;10.298;2023-08-17T08:20:40;96344.22;;;26.45;100.00
39141;BME280;24875;48.436;10.298;2023-08-17T08:23:07;96352.84;;;26.52;100.00
39141;BME280;24875;48.436;10.298;2023-08-17T08:25:34;96347.50;;;26.38;100.00
39141;BME280;24875;48.436;10.298;2023-08-17T08:28:00;96349.56;;;26.75;100.00
39141;BME280;24875;48.436;10.298;2023-08-17T08:30:26;96350.88;;;26.88;98.68
39141;BME280;24875;48.436;10.298;2023-08-17T08:32:53;96352.75;;;26.97;96.18
39141;BME280;24875;48.436;10.298;2023-08-17T08:35:24;96354.94;;;26.85;99.92
39141;BME280;24875;48.436;10.298;2023-08-17T08:37:50;96344.09;;;27.00;100.00
39141;BME280;24875;48.436;10.298;2023-08-17T08:40:18;96339.66;;;27.24;98.68
39141;BME280;24875;48.436;10.298;2023-08-17T08:42:45;96338.25;;;27.31;96.46
39141;BME280;24875;48.436;10.298;2023-08-17T08:45:11;96342.66;;;27.17;100.00
39141;BME280;24875;48.436;10.298;2023-08-17T08:50:06;96340.41;;;27.82;98.27
39141;BME280;24875;48.436;10.298;2023-08-17T08:52:35;96339.97;;;28.04;95.32
39141;BME280;24875;48.436;10.298;2023-08-17T08:55:10;96349.66;;;28.20;96.60
39141;BME280;24875;48.436;10.298;2023-08-17T08:57:38;96348.84;;;27.76;96.24
39141;BME280;24875;48.436;10.298;2023-08-17T09:00:06;96345.94;;;28.06;95.63
39141;BME280;24875;48.436;10.298;2023-08-17T09:02:34;96347.59;;;28.02;94.02
39141;BME280;24875;48.436;10.298;2023-08-17T09:05:02;96346.13;;;28.19;92.84
39141;BME280;24875;48.436;10.298;2023-08-17T09:07:29;96338.81;;;28.20;94.33
39141;BME280;24875;48.436;10.298;2023-08-17T09:09:57;96342.19;;;28.02;93.00
39141;BME280;24875;48.436;10.298;2023-08-17T09:12:24;96331.47;;;28.20;91.55
39141;BME280;24875;48.436;10.298;2023-08-17T09:14:51;96337.28;;;28.04;93.07
39141;BME280;24875;48.436;10.298;2023-08-17T09:17:22;96331.75;;;28.47;93.33
39141;BME280;24875;48.436;10.298;2023-08-17T09:19:49;96335.91;;;28.39;92.32
39141;BME280;24875;48.436;10.298;2023-08-17T09:22:22;96333.06;;;28.54;95.23
39141;BME280;24875;48.436;10.298;2023-08-17T09:24:48;96331.63;;;28.62;91.85
39141;BME280;24875;48.436;10.298;2023-08-17T09:27:16;96325.78;;;28.78;93.44
39141;BME280;24875;48.436;10.298;2023-08-17T09:29:43;96330.03;;;28.56;92.70
39141;BME280;24875;48.436;10.298;2023-08-17T09:32:11;96333.06;;;28.54;90.15
39141;BME280;24875;48.436;10.298;2023-08-17T09:34:37;96333.34;;;28.25;92.60
39141;BME280;24875;48.436;10.298;2023-08-17T09:37:04;96333.19;;;28.39;90.77
39141;BME280;24875;48.436;10.298;2023-08-17T09:39:31;96334.34;;;28.62;92.31
39141;BME280;24875;48.436;10.298;2023-08-17T09:41:59;96329.72;;;28.62;91.85
39141;BME280;24875;48.436;10.298;2023-08-17T09:44:27;96327.47;;;28.69;89.88
39141;BME280;24875;48.436;10.298;2023-08-17T09:46:55;96337.28;;;28.37;92.31
39141;BME280;24875;48.436;10.298;2023-08-17T09:49:23;96322.59;;;28.66;89.03
39141;BME280;24875;48.436;10.298;2023-08-17T09:51:49;96324.22;;;28.67;91.02
39141;BME280;24875;48.436;10.298;2023-08-17T09:54:21;96322.59;;;29.18;92.41
39141;BME280;24875;48.436;10.298;2023-08-17T09:56:50;96321.56;;;29.14;84.42
39141;BME280;24875;48.436;10.298;2023-08-17T09:59:16;96318.09;;;29.32;88.80
39141;BME280;24875;48.436;10.298;2023-08-17T10:01:50;96328.22;;;29.45;90.44
39141;BME280;24875;48.436;10.298;2023-08-17T10:04:20;96318.63;;;29.52;85.53
39141;BME280;24875;48.436;10.298;2023-08-17T10:06:48;96314.34;;;29.46;89.05
39141;BME280;24875;48.436;10.298;2023-08-17T10:09:17;96322.41;;;29.33;88.65
39141;BME280;24875;48.436;10.298;2023-08-17T10:11:49;96320.44;;;29.57;87.82
39141;BME280;24875;48.436;10.298;2023-08-17T10:14:21;96325.38;;;29.91;87.49
39141;BME280;24875;48.436;10.298;2023-08-17T10:16:57;96317.13;;;29.78;85.97
39141;BME280;24875;48.436;10.298;2023-08-17T10:19:35;96323.31;;;30.02;86.41
39141;BME280;24875;48.436;10.298;2023-08-17T10:22:08;96326.16;;;29.73;85.08
39141;BME280;24875;48.436;10.298;2023-08-17T10:24:35;96329.69;;;29.56;85.84
39141;BME280;24875;48.436;10.298;2023-08-17T10:27:04;96325.28;;;29.78;87.16
39141;BME280;24875;48.436;10.298;2023-08-17T10:29:32;96321.09;;;30.04;86.81
39141;BME280;24875;48.436;10.298;2023-08-17T10:32:01;96320.63;;;30.15;83.54
39141;BME280;24875;48.436;10.298;2023-08-17T10:34:28;96317.84;;;29.83;81.24
39141;BME280;24875;48.436;10.298;2023-08-17T10:36:55;96316.03;;;29.97;78.37
39141;BME280;24875;48.436;10.298;2023-08-17T10:39:25;96316.13;;;30.24;79.52
39141;BME280;24875;48.436;10.298;2023-08-17T10:41:53;96317.34;;;30.18;72.19
39141;BME280;24875;48.436;10.298;2023-08-17T10:44:38;96315.97;;;30.66;75.89
39141;BME280;24875;48.436;10.298;2023-08-17T10:47:20;96312.25;;;30.88;75.46
39141;BME280;24875;48.436;10.298;2023-08-17T10:49:48;96312.88;;;30.85;75.75
39141;BME280;24875;48.436;10.298;2023-08-17T10:52:14;96315.66;;;30.94;73.47
39141;BME280;24875;48.436;10.298;2023-08-17T10:54:42;96305.22;;;31.14;73.61
39141;BME280;24875;48.436;10.298;2023-08-17T10:57:25;96303.59;;;31.27;67.78
39141;BME280;24875;48.436;10.298;2023-08-17T11:00:05;96310.25;;;30.81;69.25
39141;BME280;24875;48.436;10.298;2023-08-17T11:02:34;96306.97;;;30.52;73.46
39141;BME280;24875;48.436;10.298;2023-08-17T11:05:01;96309.69;;;30.20;73.44
39141;BME280;24875;48.436;10.298;2023-08-17T11:07:38;96304.56;;;30.90;69.90
39141;BME280;24875;48.436;10.298;2023-08-17T11:10:11;96310.41;;;30.57;70.41
39141;BME280;24875;48.436;10.298;2023-08-17T11:12:37;96304.19;;;30.83;68.34
39141;BME280;24875;48.436;10.298;2023-08-17T11:15:05;96300.78;;;31.05;68.37
39141;BME280;24875;48.436;10.298;2023-08-17T11:17:31;96304.72;;;31.12;67.35
39141;BME280;24875;48.436;10.298;2023-08-17T11:19:59;96302.78;;;30.86;67.73
39141;BME280;24875;48.436;10.298;2023-08-17T11:22:25;96305.59;;;30.81;65.68
39141;BME280;24875;48.436;10.298;2023-08-17T11:24:52;96308.19;;;30.73;66.81
39141;BME280;24875;48.436;10.298;2023-08-17T11:27:19;96300.75;;;31.32;67.31
39141;BME280;24875;48.436;10.298;2023-08-17T11:29:46;96301.59;;;31.05;66.23
39141;BME280;24875;48.436;10.298;2023-08-17T11:32:16;96298.94;;;31.27;66.71
39141;BME280;24875;48.436;10.298;2023-08-17T11:34:42;96293.03;;;30.98;63.90
39141;BME280;24875;48.436;10.298;2023-08-17T11:37:12;96296.50;;;31.39;63.67
39141;BME280;24875;48.436;10.298;2023-08-17T11:39:39;96292.66;;;31.40;64.68
39141;BME280;24875;48.436;10.298;2023-08-17T11:42:06;96287.28;;;31.00;65.75
39141;BME280;24875;48.436;10.298;2023-08-17T11:44:33;96278.91;;;31.10;69.52
39141;BME280;24875;48.436;10.298;2023-08-17T11:47:00;96273.53;;;30.65;72.22
39141;BME280;24875;48.436;10.298;2023-08-17T11:49:26;96271.75;;;31.00;65.96
39141;BME280;24875;48.436;10.298;2023-08-17T11:51:53;96267.19;;;31.23;65.95
39141;BME280;24875;48.436;10.298;2023-08-17T11:54:20;96264.00;;;31.43;63.52
39141;BME280;24875;48.436;10.298;2023-08-17T11:56:47;96260.00;;;31.27;63.74
39141;BME280;24875;48.436;10.298;2023-08-17T11:59:14;96269.50;;;31.29;61.82
39141;BME280;24875;48.436;10.298;2023-08-17T12:01:43;96255.34;;;31.41;59.75
39141;BME280;24875;48.436;10.298;2023-08-17T12:04:10;96248.91;;;31.37;62.17
39141;BME280;24875;48.436;10.298;2023-08-17T12:06:40;96249.31;;;31.65;61.04
39141;BME280;24875;48.436;10.298;2023-08-17T12:09:08;96245.25;;;31.41;59.64
39141;BME280;24875;48.436;10.298;2023-08-17T12:11:37;96253.16;;;31.16;62.00
39141;BME280;24875;48.436;10.298;2023-08-17T12:14:09;96242.69;;;31.58;61.42
39141;BME280;24875;48.436;10.298;2023-08-17T12:16:45;96244.72;;;32.10;61.63
39141;BME280;24875;48.436;10.298;2023-08-17T12:19:12;96243.72;;;32.06;64.19
39141;BME280;24875;48.436;10.298;2023-08-17T12:21:40;96237.59;;;32.30;62.29
39141;BME280;24875;48.436;10.298;2023-08-17T12:24:08;96234.75;;;32.66;58.18
39141;BME280;24875;48.436;10.298;2023-08-17T12:26:40;96238.19;;;32.49;59.90
39141;BME280;24875;48.436;10.298;2023-08-17T12:29:07;96226.31;;;32.84;57.31
39141;BME280;24875;48.436;10.298;2023-08-17T12:31:33;96220.16;;;32.70;57.30
39141;BME280;24875;48.436;10.298;2023-08-17T12:34:00;96218.56;;;32.69;54.81
39141;BME280;24875;48.436;10.298;2023-08-17T12:36:26;96212.41;;;32.55;52.10
39141;BME280;24875;48.436;10.298;2023-08-17T12:38:54;96217.88;;;32.55;50.98
39141;BME280;24875;48.436;10.298;2023-08-17T12:41:20;96218.72;;;32.72;49.95
39141;BME280;24875;48.436;10.298;2023-08-17T12:43:48;96216.16;;;32.76;49.98
39141;BME280;24875;48.436;10.298;2023-08-17T12:46:15;96206.81;;;32.69;50.49
39141;BME280;24875;48.436;10.298;2023-08-17T12:48:41;96210.66;;;32.59;52.32